Time;durP1;ratioP1;P1;durP2;ratioP2;P2;SDS_P1;SDS_P2;PMS_P1;PMS_P2;Temp;Humidity;BMP_temperature;BMP_pressure;BME280_temperature;BME280_humidity;BME280_pressure;Samples;Min_cycle;Max_cycle;Signal;HPM_P1;HPM_P2
2023/10/29 00:00:47;;;;;;;1.73;1.30;;;12.80;99.90;;;;;;4996936;28;20582;-91
2023/10/29 00:03:13;;;;;;;1.07;1.03;;;12.90;99.90;;;;;;5012095;28;20226;-91
2023/10/29 00:05:40;;;;;;;1.50;1.40;;;12.90;99.90;;;;;;5013433;28;20729;-92
2023/10/29 00:08:07;;;;;;;1.60;1.50;;;12.80;99.90;;;;;;4995733;28;20214;-93
2023/10/29 00:10:35;;;;;;;2.53;1.80;;;12.90;99.90;;;;;;5013701;28;20233;-95
2023/10/29 00:13:02;;;;;;;2.23;1.27;;;12.80;99.90;;;;;;5034448;28;20186;-91
2023/10/29 00:15:29;;;;;;;0.80;0.80;;;12.90;99.90;;;;;;5032784;28;20300;-94
2023/10/29 00:17:55;;;;;;;3.60;1.33;;;12.90;99.90;;;;;;5044945;28;20253;-92
2023/10/29 00:20:20;;;;;;;1.03;1.00;;;13.00;99.90;;;;;;5044770;28;20265;-95
2023/10/29 00:22:46;;;;;;;1.30;0.97;;;13.00;99.90;;;;;;4999052;28;20326;-94
2023/10/29 00:25:12;;;;;;;1.03;0.63;;;12.90;99.90;;;;;;5018297;28;20193;-96
2023/10/29 00:27:38;;;;;;;1.17;0.80;;;12.90;99.90;;;;;;5032358;28;20306;-95
2023/10/29 00:30:07;;;;;;;1.67;1.03;;;12.90;99.90;;;;;;5028989;28;20281;-91
2023/10/29 00:32:36;;;;;;;0.70;0.70;;;12.90;99.90;;;;;;5002401;28;20230;-92
2023/10/29 00:35:05;;;;;;;1.10;1.07;;;12.90;99.90;;;;;;5022236;28;20234;-92
2023/10/29 00:37:31;;;;;;;1.50;1.10;;;13.00;99.90;;;;;;5035996;28;20268;-94
2023/10/29 00:39:57;;;;;;;1.30;1.07;;;13.00;99.90;;;;;;5035049;28;20244;-93
2023/10/29 00:42:23;;;;;;;1.03;1.00;;;13.00;99.90;;;;;;5033641;28;20786;-93
2023/10/29 00:44:49;;;;;;;1.20;1.20;;;12.90;99.90;;;;;;4999611;28;20211;-94
2023/10/29 00:47:15;;;;;;;0.60;0.60;;;13.00;99.90;;;;;;5017452;28;20698;-92
2023/10/29 00:49:41;;;;;;;4.03;1.20;;;13.00;99.90;;;;;;4999971;28;20210;-92
2023/10/29 00:52:07;;;;;;;12.20;1.80;;;12.90;99.90;;;;;;4999534;28;20210;-94
2023/10/29 00:54:33;;;;;;;1.77;1.50;;;13.00;99.90;;;;;;5015539;28;20710;-92
2023/10/29 00:56:59;;;;;;;0.70;0.70;;;12.90;99.90;;;;;;5000570;28;20225;-94
2023/10/29 00:59:27;;;;;;;1.50;1.07;;;13.10;99.90;;;;;;5032883;28;20220;-94
2023/10/29 01:01:53;;;;;;;0.77;0.77;;;13.10;99.90;;;;;;5033013;28;20243;-90
2023/10/29 01:04:19;;;;;;;1.17;1.00;;;13.10;99.90;;;;;;5003290;28;20206;-93
2023/10/29 01:06:47;;;;;;;0.60;0.60;;;13.10;99.90;;;;;;5050006;28;20753;-91
2023/10/29 01:09:13;;;;;;;0.67;0.67;;;13.20;99.90;;;;;;5033588;28;20197;-94
2023/10/29 01:11:39;;;;;;;1.10;1.00;;;13.30;99.90;;;;;;5034503;28;20590;-95
2023/10/29 01:14:05;;;;;;;0.70;0.70;;;13.30;99.90;;;;;;5034144;28;20183;-91
2023/10/29 01:16:31;;;;;;;0.83;0.83;;;13.30;99.90;;;;;;5052331;28;20608;-92
2023/10/29 01:18:58;;;;;;;0.37;0.37;;;13.40;99.90;;;;;;5048938;28;20187;-94
2023/10/29 01:21:27;;;;;;;0.90;0.90;;;13.40;99.90;;;;;;5032045;28;20285;-96
2023/10/29 01:23:53;;;;;;;0.67;0.67;;;13.40;99.90;;;;;;5017572;28;20686;-93
2023/10/29 01:26:19;;;;;;;0.60;0.60;;;13.40;99.90;;;;;;5034857;28;20199;-93
2023/10/29 01:28:48;;;;;;;1.00;0.83;;;13.50;99.90;;;;;;5034220;28;20182;-93
2023/10/29 01:31:13;;;;;;;0.60;0.60;;;13.60;99.90;;;;;;5051824;28;20264;-95
2023/10/29 01:33:39;;;;;;;0.60;0.60;;;13.60;99.90;;;;;;5049744;28;20213;-94
2023/10/29 01:36:09;;;;;;;0.90;0.83;;;13.70;99.90;;;;;;5017224;28;20221;-95
2023/10/29 01:38:34;;;;;;;0.30;0.30;;;13.70;99.90;;;;;;5019986;28;20186;-94
2023/10/29 01:41:00;;;;;;;1.23;1.23;;;13.70;99.90;;;;;;5034368;28;20646;-93
2023/10/29 01:43:26;;;;;;;1.40;0.80;;;13.80;99.90;;;;;;5036218;28;20182;-94
2023/10/29 01:45:52;;;;;;;0.53;0.53;;;13.80;99.90;;;;;;5036188;28;20244;-94
2023/10/29 01:48:19;;;;;;;1.10;1.10;;;13.90;99.90;;;;;;5033727;28;20219;-93
2023/10/29 01:50:46;;;;;;;1.10;0.77;;;13.90;99.90;;;;;;5033617;28;20597;-93
2023/10/29 01:53:12;;;;;;;1.47;1.37;;;13.90;99.90;;;;;;5017456;28;20186;-92
2023/10/29 01:55:38;;;;;;;1.67;1.07;;;14.00;99.90;;;;;;5049536;28;21314;-92
2023/10/29 01:58:04;;;;;;;1.10;1.00;;;13.90;99.90;;;;;;5050405;28;20186;-94
2023/10/29 02:00:30;;;;;;;0.97;0.80;;;14.00;99.90;;;;;;5030512;28;20182;-91
2023/10/29 02:02:56;;;;;;;1.40;1.30;;;14.00;99.90;;;;;;4997665;28;20216;-92
2023/10/29 02:05:21;;;;;;;1.17;1.13;;;14.00;99.90;;;;;;5013113;28;20218;-92
2023/10/29 02:07:47;;;;;;;1.33;0.97;;;14.10;99.90;;;;;;5014965;28;20246;-92
2023/10/29 02:10:13;;;;;;;1.57;1.47;;;14.10;99.90;;;;;;4996358;28;20182;-92
2023/10/29 02:12:39;;;;;;;0.87;0.87;;;14.20;99.90;;;;;;5030973;28;20224;-92
2023/10/29 02:15:05;;;;;;;0.80;0.70;;;14.20;99.90;;;;;;5013234;28;20202;-91
2023/10/29 02:17:31;;;;;;;0.93;0.93;;;14.10;99.90;;;;;;5013768;28;20308;-92
2023/10/29 02:19:57;;;;;;;0.97;0.97;;;14.30;99.90;;;;;;5013646;28;20573;-92
2023/10/29 02:22:24;;;;;;;0.63;0.63;;;14.20;99.90;;;;;;5029520;28;20183;-93
2023/10/29 02:24:50;;;;;;;0.93;0.73;;;14.20;99.90;;;;;;5014530;28;20194;-91
2023/10/29 02:27:16;;;;;;;0.30;0.30;;;14.30;99.90;;;;;;5013555;28;20210;-90
2023/10/29 02:29:42;;;;;;;2.43;1.60;;;14.30;99.90;;;;;;4997140;28;20225;-92
2023/10/29 02:32:08;;;;;;;0.70;0.70;;;14.30;99.90;;;;;;5029964;28;20812;-91
2023/10/29 02:34:34;;;;;;;0.77;0.73;;;14.30;99.90;;;;;;4996912;28;20674;-91
2023/10/29 02:37:00;;;;;;;0.50;0.50;;;14.30;99.90;;;;;;5024102;28;20190;-91
2023/10/29 02:39:26;;;;;;;1.43;1.33;;;14.30;99.90;;;;;;4996603;28;20210;-90
2023/10/29 02:41:51;;;;;;;1.30;1.20;;;14.30;99.90;;;;;;4997260;28;20218;-92
2023/10/29 02:44:17;;;;;;;0.60;0.60;;;14.30;99.90;;;;;;5020498;28;20265;-93
2023/10/29 02:46:43;;;;;;;1.83;1.00;;;14.30;99.90;;;;;;4996372;28;20266;-91
2023/10/29 02:49:08;;;;;;;0.37;0.37;;;14.30;99.90;;;;;;4997504;28;20209;-93
2023/10/29 02:51:34;;;;;;;3.37;0.50;;;14.30;99.90;;;;;;4996749;28;20232;-92
2023/10/29 02:54:01;;;;;;;1.23;0.77;;;14.30;99.90;;;;;;4996956;28;20264;-93
2023/10/29 02:56:27;;;;;;;1.70;0.57;;;14.30;99.90;;;;;;5022876;28;20220;-92
2023/10/29 02:58:53;;;;;;;1.33;0.60;;;14.40;99.90;;;;;;4997500;28;20218;-93
2023/10/29 03:01:18;;;;;;;1.73;1.10;;;14.40;99.90;;;;;;4996705;28;20209;-92
2023/10/29 03:03:44;;;;;;;1.67;1.07;;;14.40;99.90;;;;;;4995979;28;20256;-90
2023/10/29 03:06:10;;;;;;;2.77;0.40;;;14.50;99.90;;;;;;5029744;28;20221;-91
2023/10/29 03:08:36;;;;;;;0.30;0.30;;;14.40;99.90;;;;;;5028732;28;20226;-90
2023/10/29 03:11:03;;;;;;;0.93;0.70;;;14.50;99.90;;;;;;5029680;28;20265;-91
2023/10/29 03:13:29;;;;;;;0.40;0.40;;;14.50;99.90;;;;;;5029689;28;20190;-91
2023/10/29 03:15:56;;;;;;;0.60;0.60;;;14.50;99.90;;;;;;4995590;28;20233;-91
2023/10/29 03:18:22;;;;;;;0.43;0.43;;;14.50;99.90;;;;;;5045358;28;20213;-93
2023/10/29 03:20:48;;;;;;;2.43;0.60;;;14.50;99.90;;;;;;5012546;28;20305;-92
2023/10/29 03:23:15;;;;;;;0.50;0.50;;;14.60;99.90;;;;;;5012225;28;20275;-91
2023/10/29 03:25:40;;;;;;;0.40;0.40;;;14.50;99.90;;;;;;5013668;28;20294;-92
2023/10/29 03:28:06;;;;;;;1.37;0.53;;;14.60;99.90;;;;;;4997701;28;20187;-92
2023/10/29 03:30:32;;;;;;;0.20;0.20;;;14.50;99.90;;;;;;5013996;28;20305;-91
2023/10/29 03:32:59;;;;;;;0.33;0.33;;;14.60;99.90;;;;;;5011550;28;20217;-94
2023/10/29 03:35:28;;;;;;;0.20;0.20;;;14.60;99.90;;;;;;5030251;28;20750;-91
2023/10/29 03:37:54;;;;;;;0.40;0.40;;;14.60;99.90;;;;;;5010631;28;20240;-93
2023/10/29 03:40:20;;;;;;;0.70;0.70;;;14.60;99.90;;;;;;5027621;28;20197;-91
2023/10/29 03:42:46;;;;;;;0.47;0.47;;;14.60;99.90;;;;;;5020585;28;20823;-92
2023/10/29 03:45:12;;;;;;;0.40;0.40;;;14.60;99.90;;;;;;5013135;28;20229;-93
2023/10/29 03:47:38;;;;;;;0.90;0.60;;;14.60;99.90;;;;;;5013706;28;20302;-92
2023/10/29 03:50:04;;;;;;;0.40;0.40;;;14.60;99.90;;;;;;4997726;28;20211;-91
2023/10/29 03:52:30;;;;;;;0.50;0.40;;;14.60;99.90;;;;;;5011852;28;20209;-91
2023/10/29 03:54:56;;;;;;;0.90;0.50;;;14.70;99.90;;;;;;5030029;28;20231;-92
2023/10/29 03:57:21;;;;;;;0.23;0.23;;;14.60;99.90;;;;;;5012438;28;20561;-93
2023/10/29 03:59:47;;;;;;;0.37;0.37;;;14.60;99.90;;;;;;5012700;28;20213;-93
2023/10/29 04:02:13;;;;;;;0.23;0.23;;;14.70;99.90;;;;;;4996518;28;20257;-91
2023/10/29 04:04:39;;;;;;;0.20;0.20;;;14.70;99.90;;;;;;4995893;28;20287;-90
2023/10/29 04:07:05;;;;;;;0.20;0.20;;;14.70;99.90;;;;;;4996377;28;20186;-91
2023/10/29 04:09:31;;;;;;;0.67;0.40;;;14.70;99.90;;;;;;4995073;28;20574;-91
2023/10/29 04:11:58;;;;;;;0.30;0.30;;;14.70;99.90;;;;;;5028469;28;20574;-90
2023/10/29 04:14:24;;;;;;;0.20;0.20;;;14.60;99.90;;;;;;4996579;28;20825;-93
2023/10/29 04:16:50;;;;;;;0.50;0.50;;;14.60;99.90;;;;;;4995484;28;20228;-92
2023/10/29 04:19:16;;;;;;;0.20;0.20;;;14.60;99.90;;;;;;4996245;28;20204;-91
2023/10/29 04:21:42;;;;;;;0.20;0.20;;;14.60;99.90;;;;;;5028536;28;20230;-91
2023/10/29 04:24:08;;;;;;;0.40;0.40;;;14.50;99.90;;;;;;5011482;28;20221;-93
2023/10/29 04:26:34;;;;;;;0.73;0.20;;;14.60;99.90;;;;;;4996481;28;20244;-92
2023/10/29 04:28:59;;;;;;;0.30;0.30;;;14.60;99.90;;;;;;5028784;28;20213;-91
2023/10/29 04:31:25;;;;;;;0.30;0.30;;;14.60;99.90;;;;;;5012080;28;20210;-91
2023/10/29 04:33:51;;;;;;;0.70;0.70;;;14.60;99.90;;;;;;5012990;28;20678;-91
2023/10/29 04:36:24;;;;;;;0.53;0.43;;;14.60;99.90;;;;;;5011721;28;20218;-91
2023/10/29 04:38:51;;;;;;;0.10;0.10;;;14.50;99.90;;;;;;5029434;28;20210;-92
2023/10/29 04:41:17;;;;;;;0.30;0.30;;;14.50;99.90;;;;;;4996305;28;20248;-92
2023/10/29 04:43:44;;;;;;;0.53;0.53;;;14.40;99.90;;;;;;5029889;28;20678;-91
2023/10/29 04:46:10;;;;;;;0.10;0.10;;;14.30;99.90;;;;;;5014264;28;20186;-91
2023/10/29 04:48:37;;;;;;;1.00;0.23;;;14.20;99.90;;;;;;5012364;28;20309;-91
2023/10/29 04:51:07;;;;;;;0.50;0.50;;;14.10;99.90;;;;;;5028119;28;20352;-93
2023/10/29 04:53:36;;;;;;;0.10;0.10;;;14.00;99.90;;;;;;5011850;28;20217;-92
2023/10/29 04:56:03;;;;;;;1.20;0.57;;;13.90;99.90;;;;;;5027684;28;20257;-91
2023/10/29 04:58:29;;;;;;;0.40;0.40;;;13.90;99.90;;;;;;5011247;28;20277;-91
2023/10/29 05:00:58;;;;;;;0.20;0.20;;;13.90;99.90;;;;;;5013508;28;20224;-91
2023/10/29 05:03:25;;;;;;;0.20;0.20;;;13.80;99.90;;;;;;5027708;28;20284;-91
2023/10/29 05:05:51;;;;;;;5.30;0.67;;;13.80;99.90;;;;;;5028653;28;20271;-91
2023/10/29 05:08:17;;;;;;;0.20;0.20;;;13.70;99.90;;;;;;5016630;28;20230;-91
2023/10/29 05:10:44;;;;;;;3.90;0.87;;;13.60;99.90;;;;;;4998817;28;20218;-91
2023/10/29 05:13:10;;;;;;;0.23;0.17;;;13.60;99.90;;;;;;4999137;28;20241;-89
2023/10/29 05:15:36;;;;;;;1.90;0.30;;;13.60;99.90;;;;;;5032258;28;20182;-91
2023/10/29 05:18:02;;;;;;;0.10;0.10;;;13.60;99.90;;;;;;4999332;28;20308;-93
2023/10/29 05:20:27;;;;;;;0.20;0.20;;;13.60;99.90;;;;;;5047954;28;20252;-93
2023/10/29 05:22:53;;;;;;;0.87;0.33;;;13.70;99.90;;;;;;5014663;28;20229;-91
2023/10/29 05:25:19;;;;;;;0.30;0.30;;;13.70;99.90;;;;;;5014685;28;20218;-91
2023/10/29 05:27:55;;;;;;;0.20;0.20;;;13.70;99.90;;;;;;5032215;28;20183;-91
2023/10/29 05:30:22;;;;;;;0.30;0.30;;;13.80;99.90;;;;;;5032024;28;20215;-91
2023/10/29 05:32:48;;;;;;;0.27;0.27;;;13.80;99.90;;;;;;5022144;28;20725;-91
2023/10/29 05:35:14;;;;;;;0.23;0.20;;;13.80;99.90;;;;;;5030797;28;20234;-90
2023/10/29 05:37:40;;;;;;;0.33;0.33;;;13.90;99.90;;;;;;5032478;28;20704;-89
2023/10/29 05:40:09;;;;;;;0.50;0.50;;;13.80;99.90;;;;;;5030429;28;20187;-91
2023/10/29 05:42:35;;;;;;;0.20;0.20;;;13.90;99.90;;;;;;5032160;28;20245;-90
2023/10/29 05:45:01;;;;;;;0.30;0.30;;;13.90;99.90;;;;;;5014318;28;20218;-90
2023/10/29 05:47:27;;;;;;;0.27;0.27;;;13.80;99.90;;;;;;4998700;28;20215;-91
2023/10/29 05:49:56;;;;;;;0.40;0.40;;;13.80;99.90;;;;;;4998819;28;20572;-91
2023/10/29 05:52:22;;;;;;;0.20;0.20;;;13.80;99.90;;;;;;5029719;28;20206;-91
2023/10/29 05:54:47;;;;;;;0.30;0.30;;;13.80;99.90;;;;;;5015357;28;20266;-91
2023/10/29 05:57:13;;;;;;;0.10;0.10;;;13.80;99.90;;;;;;4999673;28;20309;-93
2023/10/29 05:59:39;;;;;;;0.73;0.43;;;13.90;99.90;;;;;;5013613;28;20286;-91
2023/10/29 06:02:05;;;;;;;0.27;0.27;;;13.90;99.90;;;;;;4997738;28;20219;-90
2023/10/29 06:04:30;;;;;;;0.50;0.47;;;14.00;99.90;;;;;;4997875;28;20218;-90
2023/10/29 06:06:56;;;;;;;8.07;1.20;;;14.00;99.90;;;;;;4998210;28;20958;-89
2023/10/29 06:09:22;;;;;;;0.30;0.30;;;14.00;99.90;;;;;;4997393;28;20238;-90
2023/10/29 06:11:48;;;;;;;0.10;0.10;;;14.00;99.90;;;;;;4998400;28;20218;-90
2023/10/29 06:14:13;;;;;;;0.20;0.20;;;14.00;99.90;;;;;;5016172;28;20828;-90
2023/10/29 06:16:39;;;;;;;2.00;0.87;;;14.00;99.90;;;;;;5021408;28;20724;-89
2023/10/29 06:19:05;;;;;;;0.40;0.40;;;14.00;99.90;;;;;;4997243;28;20190;-90
2023/10/29 06:21:31;;;;;;;0.10;0.10;;;14.00;99.90;;;;;;5015763;28;20237;-90
2023/10/29 06:23:57;;;;;;;3.13;0.53;;;13.90;99.90;;;;;;4996942;28;20226;-91
2023/10/29 06:26:23;;;;;;;0.30;0.30;;;13.80;99.90;;;;;;5029722;28;20226;-91
2023/10/29 06:28:50;;;;;;;0.20;0.20;;;13.80;99.90;;;;;;5013368;28;20219;-90
2023/10/29 06:31:17;;;;;;;0.20;0.20;;;13.80;99.90;;;;;;5030491;28;20276;-90
2023/10/29 06:33:43;;;;;;;0.20;0.20;;;13.80;99.90;;;;;;5031708;28;20178;-90
2023/10/29 06:36:08;;;;;;;0.50;0.40;;;13.70;99.90;;;;;;4997543;28;20702;-91
2023/10/29 06:38:35;;;;;;;0.30;0.30;;;13.70;99.90;;;;;;5013438;28;20228;-89
2023/10/29 06:41:02;;;;;;;0.20;0.20;;;13.60;99.90;;;;;;5029972;28;20269;-90
2023/10/29 06:43:27;;;;;;;0.30;0.30;;;13.60;99.90;;;;;;5030370;28;20190;-90
2023/10/29 06:45:53;;;;;;;0.50;0.30;;;13.60;99.90;;;;;;5030941;28;20282;-90
2023/10/29 06:48:19;;;;;;;0.10;0.10;;;13.70;99.90;;;;;;4995045;28;20230;-89
2023/10/29 06:50:45;;;;;;;0.10;0.10;;;13.70;99.90;;;;;;5029578;28;20231;-90
2023/10/29 06:53:11;;;;;;;0.30;0.30;;;13.70;99.90;;;;;;5028760;28;20217;-88
2023/10/29 06:55:37;;;;;;;0.20;0.20;;;13.70;99.90;;;;;;5028124;28;20218;-89
2023/10/29 06:58:03;;;;;;;1.50;0.93;;;13.70;99.90;;;;;;5046983;28;20182;-89
2023/10/29 07:00:31;;;;;;;0.10;0.10;;;13.60;99.90;;;;;;4996404;28;20211;-90
2023/10/29 07:02:57;;;;;;;0.10;0.10;;;13.70;99.90;;;;;;5014578;28;20569;-90
2023/10/29 07:05:23;;;;;;;0.53;0.47;;;13.70;99.90;;;;;;5012507;28;20210;-88
2023/10/29 07:07:49;;;;;;;0.20;0.20;;;13.90;99.90;;;;;;5044977;28;20264;-88
2023/10/29 07:10:15;;;;;;;0.30;0.30;;;14.10;99.90;;;;;;4996946;28;20213;-88
2023/10/29 07:12:41;;;;;;;2.57;0.40;;;14.20;99.90;;;;;;5019128;28;20205;-87
2023/10/29 07:15:09;;;;;;;1.87;0.30;;;14.50;99.90;;;;;;5047522;28;20213;-88
2023/10/29 07:17:35;;;;;;;0.30;0.30;;;14.50;99.90;;;;;;5028811;28;20767;-91
2023/10/29 07:20:01;;;;;;;0.30;0.30;;;14.40;99.90;;;;;;5045820;28;20209;-87
2023/10/29 07:22:27;;;;;;;0.20;0.20;;;14.40;99.90;;;;;;5013559;28;20194;-89
2023/10/29 07:24:53;;;;;;;1.83;0.90;;;14.30;99.90;;;;;;5013392;28;20635;-88
2023/10/29 07:27:19;;;;;;;0.70;0.40;;;14.30;99.90;;;;;;4996132;28;20676;-88
2023/10/29 07:29:44;;;;;;;0.20;0.20;;;14.20;99.90;;;;;;4996567;28;20213;-87
2023/10/29 07:32:10;;;;;;;0.10;0.10;;;14.10;99.90;;;;;;4996147;28;20275;-88
2023/10/29 07:34:36;;;;;;;0.30;0.30;;;14.00;99.90;;;;;;4995221;28;20265;-88
2023/10/29 07:37:02;;;;;;;2.30;0.40;;;14.00;99.90;;;;;;4997164;28;20189;-90
2023/10/29 07:39:28;;;;;;;2.80;0.73;;;13.90;99.90;;;;;;5013244;28;20724;-88
2023/10/29 07:41:54;;;;;;;0.40;0.40;;;14.00;99.90;;;;;;4996441;28;20213;-88
2023/10/29 07:44:22;;;;;;;0.50;0.50;;;14.00;99.90;;;;;;5022872;28;20678;-89
2023/10/29 07:46:47;;;;;;;4.07;1.30;;;14.10;99.90;;;;;;5012366;28;20753;-88
2023/10/29 07:49:13;;;;;;;0.20;0.20;;;14.00;99.90;;;;;;4996667;28;20194;-88
2023/10/29 07:51:39;;;;;;;0.40;0.40;;;13.90;99.90;;;;;;4996460;28;20210;-88
2023/10/29 07:54:05;;;;;;;3.97;0.30;;;13.90;99.90;;;;;;5012499;28;20268;-89
2023/10/29 07:56:31;;;;;;;0.67;0.40;;;13.90;99.90;;;;;;5012418;28;20237;-88
2023/10/29 07:58:57;;;;;;;2.27;0.57;;;13.80;99.90;;;;;;5028459;28;20264;-89
2023/10/29 08:01:26;;;;;;;0.23;0.23;;;13.80;99.90;;;;;;4996183;28;20194;-87
2023/10/29 08:03:55;;;;;;;2.00;1.03;;;13.80;99.90;;;;;;5012563;28;20187;-90
2023/10/29 08:06:21;;;;;;;0.57;0.43;;;13.90;99.90;;;;;;4997611;28;20287;-89
2023/10/29 08:08:47;;;;;;;1.17;0.47;;;13.80;99.90;;;;;;4995909;28;20679;-88
2023/10/29 08:11:20;;;;;;;2.17;1.20;;;13.80;99.90;;;;;;5013526;28;20291;-94
2023/10/29 08:13:46;;;;;;;0.60;0.60;;;13.80;99.90;;;;;;5043600;28;20218;-90
2023/10/29 08:16:13;;;;;;;0.20;0.20;;;13.80;99.90;;;;;;5029518;28;20276;-90
2023/10/29 08:18:39;;;;;;;0.30;0.23;;;13.80;99.90;;;;;;5030066;28;20225;-90
2023/10/29 08:21:06;;;;;;;1.40;0.20;;;13.70;99.90;;;;;;5028139;28;20765;-91
2023/10/29 08:23:35;;;;;;;0.80;0.60;;;13.70;99.90;;;;;;4996198;28;20218;-90
2023/10/29 08:26:01;;;;;;;0.60;0.60;;;13.70;99.90;;;;;;4995747;28;20238;-90
2023/10/29 08:28:27;;;;;;;2.43;0.83;;;13.60;99.90;;;;;;4995018;28;20709;-90
2023/10/29 08:30:54;;;;;;;1.07;1.07;;;13.60;99.90;;;;;;5029200;28;20261;-91
2023/10/29 08:33:20;;;;;;;2.97;0.67;;;13.60;99.90;;;;;;5027816;28;20206;-91
2023/10/29 08:35:46;;;;;;;0.30;0.30;;;13.60;99.90;;;;;;5028554;28;20209;-91
2023/10/29 08:38:15;;;;;;;4.17;1.00;;;13.60;99.90;;;;;;5029676;28;20251;-90
2023/10/29 08:40:40;;;;;;;0.97;0.97;;;13.60;99.90;;;;;;5026302;28;20649;-90
2023/10/29 08:43:07;;;;;;;0.30;0.30;;;13.60;99.90;;;;;;4998804;28;20183;-90
2023/10/29 08:45:34;;;;;;;0.83;0.60;;;13.70;99.90;;;;;;5015111;28;20210;-91
2023/10/29 08:48:00;;;;;;;2.73;1.23;;;13.70;99.90;;;;;;5013468;28;20245;-90
2023/10/29 08:50:28;;;;;;;1.23;0.73;;;13.90;99.90;;;;;;4998780;28;20631;-89
2023/10/29 08:52:54;;;;;;;0.60;0.60;;;14.30;99.90;;;;;;5031707;28;20217;-91
2023/10/29 08:55:20;;;;;;;4.53;0.40;;;14.30;99.90;;;;;;5013957;28;20198;-89
2023/10/29 08:57:46;;;;;;;7.00;0.93;;;14.30;99.90;;;;;;4999841;28;20245;-91
2023/10/29 09:00:13;;;;;;;1.13;0.33;;;14.30;99.90;;;;;;4998173;28;20210;-89
2023/10/29 09:02:38;;;;;;;1.43;0.63;;;14.40;99.90;;;;;;5014653;28;20568;-89
2023/10/29 09:05:05;;;;;;;5.23;1.07;;;14.50;99.90;;;;;;5031009;28;20233;-91
2023/10/29 09:07:31;;;;;;;3.63;1.37;;;14.50;99.90;;;;;;5012001;28;20223;-90
2023/10/29 09:09:58;;;;;;;1.50;0.93;;;14.40;99.90;;;;;;4998345;28;20197;-91
2023/10/29 09:12:25;;;;;;;0.20;0.20;;;14.10;99.90;;;;;;5014023;28;20241;-91
2023/10/29 09:14:51;;;;;;;0.20;0.20;;;14.00;99.90;;;;;;5047466;28;20217;-90
2023/10/29 09:17:17;;;;;;;0.70;0.30;;;13.90;99.90;;;;;;4996472;28;20214;-91
2023/10/29 09:19:43;;;;;;;0.33;0.33;;;13.80;99.90;;;;;;5030976;28;20214;-88
2023/10/29 09:22:08;;;;;;;0.37;0.37;;;13.90;99.90;;;;;;4999181;28;20197;-90
2023/10/29 09:24:34;;;;;;;1.77;0.57;;;13.90;99.90;;;;;;5012792;28;20310;-90
2023/10/29 09:27:00;;;;;;;0.30;0.30;;;13.90;99.90;;;;;;4997821;28;20218;-90
2023/10/29 09:29:26;;;;;;;0.30;0.30;;;13.90;99.90;;;;;;5013397;28;20220;-90
2023/10/29 09:31:52;;;;;;;2.83;0.30;;;13.80;99.90;;;;;;5014075;28;20784;-91
2023/10/29 09:34:20;;;;;;;0.40;0.40;;;14.00;99.90;;;;;;5015412;28;20281;-90
2023/10/29 09:36:46;;;;;;;0.20;0.20;;;14.20;99.90;;;;;;5013424;28;20210;-90
2023/10/29 09:39:12;;;;;;;3.40;1.43;;;14.30;99.90;;;;;;4998311;28;20300;-92
2023/10/29 09:41:38;;;;;;;0.30;0.30;;;14.50;99.90;;;;;;5030773;28;20225;-91
2023/10/29 09:44:09;;;;;;;0.83;0.63;;;14.60;99.90;;;;;;5015292;28;20671;-91
2023/10/29 09:46:37;;;;;;;0.20;0.20;;;14.60;99.90;;;;;;5029826;28;20226;-93
2023/10/29 09:49:03;;;;;;;0.23;0.23;;;14.60;99.90;;;;;;5031384;28;20189;-91
2023/10/29 09:51:29;;;;;;;0.47;0.20;;;14.60;99.90;;;;;;5030093;28;20324;-90
2023/10/29 09:53:59;;;;;;;0.40;0.40;;;14.50;99.90;;;;;;4997210;28;20745;-93
2023/10/29 09:56:29;;;;;;;1.70;0.93;;;14.30;99.90;;;;;;5013767;28;20206;-91
2023/10/29 09:58:55;;;;;;;5.33;0.40;;;14.20;99.90;;;;;;4998310;28;20638;-92
2023/10/29 10:01:21;;;;;;;0.50;0.50;;;14.20;99.90;;;;;;5013233;28;20198;-90
2023/10/29 10:03:47;;;;;;;0.30;0.20;;;14.40;99.90;;;;;;5013624;28;20187;-91
2023/10/29 10:06:15;;;;;;;1.20;1.17;;;14.80;99.90;;;;;;4996308;28;20220;-93
2023/10/29 10:08:40;;;;;;;1.20;0.40;;;15.10;99.90;;;;;;5030993;28;20695;-91
2023/10/29 10:11:22;;;;;;;1.07;0.67;;;15.40;99.90;;;;;;4996298;28;20232;-91
2023/10/29 10:13:48;;;;;;;2.17;0.73;;;15.50;99.90;;;;;;5046869;28;20208;-92
2023/10/29 10:16:15;;;;;;;0.63;0.43;;;15.30;99.90;;;;;;5015078;28;20178;-91
2023/10/29 10:18:57;;;;;;;0.30;0.30;;;15.10;99.90;;;;;;5014400;28;20697;-90
2023/10/29 10:21:40;;;;;;;0.90;0.30;;;15.10;99.90;;;;;;5013636;28;20250;-91
2023/10/29 10:24:06;;;;;;;3.37;0.73;;;15.30;99.90;;;;;;5029401;28;20218;-91
2023/10/29 10:26:34;;;;;;;2.53;0.50;;;15.10;99.90;;;;;;5010509;28;20293;-90
2023/10/29 10:29:06;;;;;;;1.57;1.07;;;15.10;99.90;;;;;;5045479;28;20210;-91
2023/10/29 10:31:33;;;;;;;0.20;0.20;;;15.10;99.90;;;;;;5035729;28;20341;-89
2023/10/29 10:34:14;;;;;;;1.53;1.23;;;15.30;99.90;;;;;;5030484;28;20206;-90
2023/10/29 10:36:49;;;;;;;0.20;0.20;;;15.50;99.90;;;;;;4997444;28;20213;-91
2023/10/29 10:39:19;;;;;;;0.60;0.50;;;15.60;99.90;;;;;;5014946;28;20929;-91
2023/10/29 10:41:46;;;;;;;3.57;0.50;;;15.70;99.90;;;;;;5044624;28;20217;-93
2023/10/29 10:44:18;;;;;;;5.00;0.87;;;15.50;99.90;;;;;;5030764;28;20322;-89
2023/10/29 10:46:56;;;;;;;1.00;0.30;;;15.20;99.90;;;;;;5023676;28;20702;-90
2023/10/29 10:49:22;;;;;;;0.83;0.67;;;15.10;99.90;;;;;;5036411;28;20713;-91
2023/10/29 10:51:54;;;;;;;0.83;0.63;;;15.00;99.90;;;;;;5029554;28;20651;-90
2023/10/29 10:54:21;;;;;;;0.87;0.57;;;14.80;99.90;;;;;;5038009;28;20216;-90
2023/10/29 10:56:50;;;;;;;1.43;1.33;;;14.60;99.90;;;;;;5028571;28;20680;-91
2023/10/29 10:59:16;;;;;;;2.57;0.80;;;14.50;99.90;;;;;;5022145;28;20226;-89
2023/10/29 11:01:42;;;;;;;0.23;0.23;;;14.60;99.90;;;;;;5012087;28;20750;-89
2023/10/29 11:04:10;;;;;;;1.60;0.50;;;14.60;99.90;;;;;;5029842;28;20179;-89
2023/10/29 11:06:37;;;;;;;0.30;0.30;;;14.50;99.90;;;;;;5043697;28;20275;-89
2023/10/29 11:09:05;;;;;;;0.53;0.17;;;14.50;99.90;;;;;;5027563;28;20695;-90
2023/10/29 11:11:46;;;;;;;0.70;0.70;;;14.50;99.90;;;;;;5027794;28;20246;-89
2023/10/29 11:14:14;;;;;;;0.80;0.40;;;14.60;99.90;;;;;;5027253;28;20293;-90
2023/10/29 11:16:57;;;;;;;1.30;0.67;;;14.60;99.90;;;;;;5027186;28;20263;-88
2023/10/29 11:19:46;;;;;;;3.17;0.83;;;14.70;99.90;;;;;;5027331;28;20273;-90
2023/10/29 11:22:23;;;;;;;7.73;1.70;;;14.60;99.90;;;;;;5028654;28;20283;-89
2023/10/29 11:25:11;;;;;;;1.23;0.80;;;14.60;99.90;;;;;;5014579;28;20635;-89
2023/10/29 11:27:47;;;;;;;0.43;0.43;;;15.00;99.90;;;;;;5028550;28;20244;-89
2023/10/29 11:30:23;;;;;;;0.47;0.47;;;15.50;99.90;;;;;;5028380;28;20309;-91
2023/10/29 11:33:13;;;;;;;1.13;0.77;;;15.80;99.90;;;;;;5027302;28;20730;-89
2023/10/29 11:35:40;;;;;;;0.90;0.90;;;15.70;99.90;;;;;;5026605;28;20219;-89
2023/10/29 11:38:28;;;;;;;1.33;1.03;;;15.40;99.90;;;;;;5027952;28;20218;-89
2023/10/29 11:40:53;;;;;;;3.87;1.00;;;15.20;99.90;;;;;;5045025;28;20225;-90
2023/10/29 11:43:22;;;;;;;0.23;0.23;;;15.00;99.90;;;;;;5012443;28;20198;-89
2023/10/29 11:45:53;;;;;;;1.03;0.60;;;14.90;99.90;;;;;;5014077;28;20184;-91
2023/10/29 11:48:22;;;;;;;1.80;1.23;;;14.80;99.90;;;;;;5044784;28;20225;-90
2023/10/29 11:51:14;;;;;;;0.90;0.90;;;14.80;99.90;;;;;;5025689;28;20575;-91
2023/10/29 12:01:48;;;;;;;0.40;0.40;;;15.00;99.90;;;;;;4906870;29;20205;-90
2023/10/29 12:04:43;;;;;;;5.17;0.40;;;15.10;99.90;;;;;;4969533;28;20215;-91
2023/10/29 12:08:43;;;;;;;0.20;0.20;;;15.40;99.90;;;;;;4925160;29;20224;-89
2023/10/29 12:12:03;;;;;;;1.00;1.00;;;15.20;99.90;;;;;;4815778;29;20581;-89
2023/10/29 12:15:35;;;;;;;0.90;0.37;;;15.00;99.90;;;;;;4857995;29;20202;-88
2023/10/29 12:18:47;;;;;;;0.57;0.43;;;14.90;99.90;;;;;;4843210;29;20230;-88
2023/10/29 12:22:00;;;;;;;2.73;0.60;;;14.90;99.90;;;;;;4826138;29;20232;-89
2023/10/29 12:26:03;;;;;;;;;;;;;;;;;;;;;
2023/10/29 12:29:49;;;;;;;;;;;;;;;;;;;;;
2023/10/29 12:37:29;;;;;;;0.20;0.20;;;14.80;99.90;;;;;;4867080;29;20310;-91
2023/10/29 12:41:28;;;;;;;;;;;;;;;;;;;;;
2023/10/29 12:52:19;;;;;;;0.63;0.37;;;14.70;99.90;;;;;;4850535;29;20230;-90
2023/10/29 12:56:24;;;;;;;0.53;0.43;;;14.80;99.90;;;;;;4899939;28;20208;-90
2023/10/29 13:04:24;;;;;;;0.30;0.30;;;15.00;99.90;;;;;;4817720;29;20230;-89
2023/10/29 13:23:09;;;;;;;3.70;1.13;;;15.10;99.90;;;;;;4746640;29;20233;-89
2023/10/29 13:25:35;;;;;;;0.90;0.90;;;15.30;99.90;;;;;;4918211;28;20280;-90
2023/10/29 13:28:01;;;;;;;1.10;0.60;;;15.40;99.90;;;;;;5031402;28;20249;-89
2023/10/29 13:30:27;;;;;;;1.07;1.07;;;15.40;99.90;;;;;;5015591;28;20210;-90
2023/10/29 13:32:53;;;;;;;0.90;0.90;;;15.50;99.90;;;;;;5031792;28;20229;-90
2023/10/29 13:35:18;;;;;;;1.70;1.60;;;15.50;99.90;;;;;;5011860;28;20218;-90
2023/10/29 13:37:44;;;;;;;4.13;1.30;;;15.40;99.90;;;;;;4998068;28;20238;-90
2023/10/29 13:40:11;;;;;;;3.77;0.40;;;15.40;99.90;;;;;;5014368;28;20195;-90
2023/10/29 13:42:37;;;;;;;1.30;0.93;;;15.40;99.90;;;;;;5013803;28;20203;-92
2023/10/29 13:45:04;;;;;;;2.53;0.70;;;15.50;99.90;;;;;;4990685;28;20273;-89